sensor_id;sensor_type;location;lat;lon;timestamp;pressure;altitude;pressure_sealevel;temperature;humidity
79457;BME280;69494;43.654;3.884;2024-02-26T00:01:14;99775.53;;;7.68;100.00
79457;BME280;69494;43.654;3.884;2024-02-26T00:03:39;99760.00;;;7.70;100.00
79457;BME280;69494;43.654;3.884;2024-02-26T00:06:07;99757.38;;;7.73;100.00
79457;BME280;69494;43.654;3.884;2024-02-26T00:08:33;99770.22;;;7.74;100.00
79457;BME280;69494;43.654;3.884;2024-02-26T00:10:58;99770.28;;;7.73;100.00
79457;BME280;69494;43.654;3.884;2024-02-26T00:13:23;99762.56;;;7.70;100.00
79457;BME280;69494;43.654;3.884;2024-02-26T00:15:49;99759.16;;;7.69;100.00
79457;BME280;69494;43.654;3.884;2024-02-26T00:18:14;99755.69;;;7.69;100.00
79457;BME280;69494;43.654;3.884;2024-02-26T00:20:39;99755.69;;;7.69;100.00
79457;BME280;69494;43.654;3.884;2024-02-26T00:23:06;99762.56;;;7.71;100.00
79457;BME280;69494;43.654;3.884;2024-02-26T00:25:32;99766.00;;;7.70;100.00
79457;BME280;69494;43.654;3.884;2024-02-26T00:27:57;99753.09;;;7.69;100.00
79457;BME280;69494;43.654;3.884;2024-02-26T00:30:22;99747.09;;;7.67;100.00
79457;BME280;69494;43.654;3.884;2024-02-26T00:32:48;99752.25;;;7.68;100.00
79457;BME280;69494;43.654;3.884;2024-02-26T00:35:13;99744.53;;;7.67;100.00
79457;BME280;69494;43.654;3.884;2024-02-26T00:37:40;99758.34;;;7.66;100.00
79457;BME280;69494;43.654;3.884;2024-02-26T00:40:08;99738.53;;;7.64;100.00
79457;BME280;69494;43.654;3.884;2024-02-26T00:42:34;99748.84;;;7.66;100.00
79457;BME280;69494;43.654;3.884;2024-02-26T00:44:59;99762.63;;;7.67;100.00
79457;BME280;69494;43.654;3.884;2024-02-26T00:47:24;99754.00;;;7.68;100.00
79457;BME280;69494;43.654;3.884;2024-02-26T00:49:50;99751.41;;;7.68;100.00
79457;BME280;69494;43.654;3.884;2024-02-26T00:52:15;99741.91;;;7.68;100.00
79457;BME280;69494;43.654;3.884;2024-02-26T00:54:40;99732.41;;;7.70;100.00
79457;BME280;69494;43.654;3.884;2024-02-26T00:57:06;99719.50;;;7.69;100.00
79457;BME280;69494;43.654;3.884;2024-02-26T00:59:31;99718.69;;;7.67;100.00
79457;BME280;69494;43.654;3.884;2024-02-26T01:01:57;99711.72;;;7.70;100.00
79457;BME280;69494;43.654;3.884;2024-02-26T01:04:23;99719.47;;;7.72;100.00
79457;BME280;69494;43.654;3.884;2024-02-26T01:06:49;99707.41;;;7.71;100.00
79457;BME280;69494;43.654;3.884;2024-02-26T01:09:14;99708.28;;;7.71;100.00
79457;BME280;69494;43.654;3.884;2024-02-26T01:11:39;99699.66;;;7.71;100.00
79457;BME280;69494;43.654;3.884;2024-02-26T01:14:05;99701.38;;;7.72;100.00
79457;BME280;69494;43.654;3.884;2024-02-26T01:16:31;99698.81;;;7.70;100.00
79457;BME280;69494;43.654;3.884;2024-02-26T01:18:57;99708.28;;;7.70;100.00
79457;BME280;69494;43.654;3.884;2024-02-26T01:21:22;99697.13;;;7.68;100.00
79457;BME280;69494;43.654;3.884;2024-02-26T01:23:47;99693.72;;;7.66;100.00
79457;BME280;69494;43.654;3.884;2024-02-26T01:26:13;99666.16;;;7.64;100.00
79457;BME280;69494;43.654;3.884;2024-02-26T01:28:38;99620.50;;;7.65;100.00
79457;BME280;69494;43.654;3.884;2024-02-26T01:31:03;99616.25;;;7.62;100.00
79457;BME280;69494;43.654;3.884;2024-02-26T01:33:31;99637.81;;;7.60;100.00
79457;BME280;69494;43.654;3.884;2024-02-26T01:35:57;99643.91;;;7.57;100.00
79457;BME280;69494;43.654;3.884;2024-02-26T01:38:22;99642.19;;;7.56;100.00
79457;BME280;69494;43.654;3.884;2024-02-26T01:40:47;99650.00;;;7.55;100.00
79457;BME280;69494;43.654;3.884;2024-02-26T01:43:13;99650.00;;;7.53;100.00
79457;BME280;69494;43.654;3.884;2024-02-26T01:45:38;99646.56;;;7.53;100.00
79457;BME280;69494;43.654;3.884;2024-02-26T01:48:04;99644.88;;;7.52;100.00
79457;BME280;69494;43.654;3.884;2024-02-26T01:50:29;99633.72;;;7.48;100.00
79457;BME280;69494;43.654;3.884;2024-02-26T01:52:55;99626.84;;;7.47;100.00
79457;BME280;69494;43.654;3.884;2024-02-26T01:55:23;99628.56;;;7.48;100.00
79457;BME280;69494;43.654;3.884;2024-02-26T01:57:49;99640.63;;;7.48;100.00
79457;BME280;69494;43.654;3.884;2024-02-26T02:00:17;99641.47;;;7.48;100.00
79457;BME280;69494;43.654;3.884;2024-02-26T02:02:43;99626.03;;;7.45;100.00
79457;BME280;69494;43.654;3.884;2024-02-26T02:05:12;99621.69;;;7.45;100.00
79457;BME280;69494;43.654;3.884;2024-02-26T02:07:40;99634.63;;;7.45;100.00
79457;BME280;69494;43.654;3.884;2024-02-26T02:10:06;99628.63;;;7.43;100.00
79457;BME280;69494;43.654;3.884;2024-02-26T02:12:32;99627.84;;;7.40;100.00
79457;BME280;69494;43.654;3.884;2024-02-26T02:14:59;99632.97;;;7.41;100.00
79457;BME280;69494;43.654;3.884;2024-02-26T02:17:24;99636.47;;;7.40;100.00
79457;BME280;69494;43.654;3.884;2024-02-26T02:19:50;99639.94;;;7.38;100.00
79457;BME280;69494;43.654;3.884;2024-02-26T02:22:15;99644.25;;;7.37;100.00
79457;BME280;69494;43.654;3.884;2024-02-26T02:24:41;99641.69;;;7.36;100.00
79457;BME280;69494;43.654;3.884;2024-02-26T02:27:06;99628.78;;;7.36;100.00
79457;BME280;69494;43.654;3.884;2024-02-26T02:29:31;99630.50;;;7.37;100.00
79457;BME280;69494;43.654;3.884;2024-02-26T02:31:57;99614.91;;;7.40;100.00
79457;BME280;69494;43.654;3.884;2024-02-26T02:34:22;99611.47;;;7.41;100.00
79457;BME280;69494;43.654;3.884;2024-02-26T02:36:49;99601.13;;;7.41;100.00
79457;BME280;69494;43.654;3.884;2024-02-26T02:39:16;99601.13;;;7.41;100.00
79457;BME280;69494;43.654;3.884;2024-02-26T02:41:42;99610.56;;;7.42;100.00
79457;BME280;69494;43.654;3.884;2024-02-26T02:44:07;99609.72;;;7.43;100.00
79457;BME280;69494;43.654;3.884;2024-02-26T02:46:32;99609.72;;;7.43;100.00
79457;BME280;69494;43.654;3.884;2024-02-26T02:48:58;99619.19;;;7.42;100.00
79457;BME280;69494;43.654;3.884;2024-02-26T02:51:24;99602.88;;;7.40;100.00
79457;BME280;69494;43.654;3.884;2024-02-26T02:53:49;99600.34;;;7.37;100.00
79457;BME280;69494;43.654;3.884;2024-02-26T02:56:14;99587.44;;;7.36;100.00
79457;BME280;69494;43.654;3.884;2024-02-26T02:58:40;99573.72;;;7.34;100.00
79457;BME280;69494;43.654;3.884;2024-02-26T03:01:05;99566.78;;;7.36;100.00
79457;BME280;69494;43.654;3.884;2024-02-26T03:03:30;99563.38;;;7.34;100.00
79457;BME280;69494;43.654;3.884;2024-02-26T03:05:56;99561.66;;;7.33;100.00
79457;BME280;69494;43.654;3.884;2024-02-26T03:08:21;99557.31;;;7.35;100.00
79457;BME280;69494;43.654;3.884;2024-02-26T03:10:46;99540.09;;;7.37;100.00
79457;BME280;69494;43.654;3.884;2024-02-26T03:13:12;99546.16;;;7.33;100.00
79457;BME280;69494;43.654;3.884;2024-02-26T03:15:37;99565.09;;;7.33;100.00
79457;BME280;69494;43.654;3.884;2024-02-26T03:18:03;99562.56;;;7.32;100.00
79457;BME280;69494;43.654;3.884;2024-02-26T03:20:28;99569.41;;;7.33;100.00
79457;BME280;69494;43.654;3.884;2024-02-26T03:22:53;99573.72;;;7.32;100.00
79457;BME280;69494;43.654;3.884;2024-02-26T03:25:19;99559.06;;;7.33;100.00
79457;BME280;69494;43.654;3.884;2024-02-26T03:27:44;99556.53;;;7.30;100.00
79457;BME280;69494;43.654;3.884;2024-02-26T03:30:09;99552.25;;;7.30;100.00
79457;BME280;69494;43.654;3.884;2024-02-26T03:32:35;99554.84;;;7.30;100.00
79457;BME280;69494;43.654;3.884;2024-02-26T03:35:00;99552.25;;;7.30;100.00
79457;BME280;69494;43.654;3.884;2024-02-26T03:37:25;99546.22;;;7.30;100.00
79457;BME280;69494;43.654;3.884;2024-02-26T03:39:51;99558.31;;;7.28;100.00
79457;BME280;69494;43.654;3.884;2024-02-26T03:42:16;99554.00;;;7.28;100.00
79457;BME280;69494;43.654;3.884;2024-02-26T03:44:42;99550.59;;;7.26;100.00
79457;BME280;69494;43.654;3.884;2024-02-26T03:47:07;99551.47;;;7.25;100.00
79457;BME280;69494;43.654;3.884;2024-02-26T03:49:32;99549.78;;;7.22;100.00
79457;BME280;69494;43.654;3.884;2024-02-26T03:51:58;99551.56;;;7.19;100.00
79457;BME280;69494;43.654;3.884;2024-02-26T03:54:23;99547.31;;;7.18;100.00
79457;BME280;69494;43.654;3.884;2024-02-26T03:56:48;99555.91;;;7.17;100.00
79457;BME280;69494;43.654;3.884;2024-02-26T03:59:14;99557.59;;;7.19;100.00
79457;BME280;69494;43.654;3.884;2024-02-26T04:01:45;99570.50;;;7.21;100.00
79457;BME280;69494;43.654;3.884;2024-02-26T04:04:11;99573.94;;;7.21;100.00
79457;BME280;69494;43.654;3.884;2024-02-26T04:06:36;99567.03;;;7.20;100.00
79457;BME280;69494;43.654;3.884;2024-02-26T04:09:02;99577.38;;;7.20;100.00
79457;BME280;69494;43.654;3.884;2024-02-26T04:11:29;99579.97;;;7.19;100.00
79457;BME280;69494;43.654;3.884;2024-02-26T04:13:54;99581.75;;;7.17;100.00
79457;BME280;69494;43.654;3.884;2024-02-26T04:16:19;99586.94;;;7.15;100.00
79457;BME280;69494;43.654;3.884;2024-02-26T04:18:45;99586.13;;;7.12;100.00
79457;BME280;69494;43.654;3.884;2024-02-26T04:21:10;99585.25;;;7.13;100.00
79457;BME280;69494;43.654;3.884;2024-02-26T04:23:35;99589.63;;;7.09;100.00
79457;BME280;69494;43.654;3.884;2024-02-26T04:26:01;99581.88;;;7.09;100.00
79457;BME280;69494;43.654;3.884;2024-02-26T04:28:26;99585.31;;;7.08;100.00
79457;BME280;69494;43.654;3.884;2024-02-26T04:30:54;99587.16;;;7.03;100.00
79457;BME280;69494;43.654;3.884;2024-02-26T04:33:19;99576.06;;;6.98;100.00
79457;BME280;69494;43.654;3.884;2024-02-26T04:35:45;99570.97;;;6.92;100.00
79457;BME280;69494;43.654;3.884;2024-02-26T04:38:10;99561.63;;;6.84;100.00
79457;BME280;69494;43.654;3.884;2024-02-26T04:40:35;99566.91;;;6.78;100.00
79457;BME280;69494;43.654;3.884;2024-02-26T04:43:01;99556.63;;;6.74;100.00
79457;BME280;69494;43.654;3.884;2024-02-26T04:45:26;99563.50;;;6.76;100.00
79457;BME280;69494;43.654;3.884;2024-02-26T04:47:51;99568.72;;;6.72;100.00
79457;BME280;69494;43.654;3.884;2024-02-26T04:50:17;99568.06;;;6.59;100.00
79457;BME280;69494;43.654;3.884;2024-02-26T04:52:42;99568.94;;;6.56;100.00
79457;BME280;69494;43.654;3.884;2024-02-26T04:55:07;99568.19;;;6.49;100.00
79457;BME280;69494;43.654;3.884;2024-02-26T04:57:33;99561.34;;;6.45;100.00
79457;BME280;69494;43.654;3.884;2024-02-26T04:59:58;99563.09;;;6.43;100.00
79457;BME280;69494;43.654;3.884;2024-02-26T05:02:24;99558.81;;;6.44;100.00
79457;BME280;69494;43.654;3.884;2024-02-26T05:04:49;99549.34;;;6.44;100.00
79457;BME280;69494;43.654;3.884;2024-02-26T05:07:15;99549.25;;;6.49;100.00
79457;BME280;69494;43.654;3.884;2024-02-26T05:09:42;99553.53;;;6.52;100.00
79457;BME280;69494;43.654;3.884;2024-02-26T05:12:09;99543.13;;;6.56;100.00
79457;BME280;69494;43.654;3.884;2024-02-26T05:14:34;99550.81;;;6.61;100.00
79457;BME280;69494;43.654;3.884;2024-02-26T05:16:59;99544.75;;;6.63;100.00
79457;BME280;69494;43.654;3.884;2024-02-26T05:19:25;99548.19;;;6.65;100.00
79457;BME280;69494;43.654;3.884;2024-02-26T05:21:50;99532.81;;;6.56;100.00
79457;BME280;69494;43.654;3.884;2024-02-26T05:24:16;99563.69;;;6.64;100.00
79457;BME280;69494;43.654;3.884;2024-02-26T05:26:43;99547.38;;;6.62;100.00
79457;BME280;69494;43.654;3.884;2024-02-26T05:29:08;99559.41;;;6.60;100.00
79457;BME280;69494;43.654;3.884;2024-02-26T05:31:34;99555.97;;;6.61;100.00
79457;BME280;69494;43.654;3.884;2024-02-26T05:33:59;99547.38;;;6.62;100.00
79457;BME280;69494;43.654;3.884;2024-02-26T05:36:25;99560.22;;;6.65;100.00
79457;BME280;69494;43.654;3.884;2024-02-26T05:38:51;99552.47;;;6.65;100.00
79457;BME280;69494;43.654;3.884;2024-02-26T05:41:16;99555.84;;;6.68;100.00
79457;BME280;69494;43.654;3.884;2024-02-26T05:43:48;99578.16;;;6.73;100.00
79457;BME280;69494;43.654;3.884;2024-02-26T05:46:13;99563.50;;;6.75;100.00
79457;BME280;69494;43.654;3.884;2024-02-26T05:48:41;99554.88;;;6.76;100.00
79457;BME280;69494;43.654;3.884;2024-02-26T05:51:06;99569.50;;;6.77;100.00
79457;BME280;69494;43.654;3.884;2024-02-26T05:53:31;99543.69;;;6.77;100.00
79457;BME280;69494;43.654;3.884;2024-02-26T05:55:57;99560.91;;;6.76;100.00
79457;BME280;69494;43.654;3.884;2024-02-26T05:58:22;99572.91;;;6.79;100.00
79457;BME280;69494;43.654;3.884;2024-02-26T06:00:48;99569.47;;;6.78;100.00
79457;BME280;69494;43.654;3.884;2024-02-26T06:03:13;99591.88;;;6.76;100.00
79457;BME280;69494;43.654;3.884;2024-02-26T06:05:38;99584.16;;;6.75;100.00
79457;BME280;69494;43.654;3.884;2024-02-26T06:08:04;99579.84;;;6.74;100.00
79457;BME280;69494;43.654;3.884;2024-02-26T06:10:30;99578.16;;;6.73;100.00
79457;BME280;69494;43.654;3.884;2024-02-26T06:12:55;99593.66;;;6.73;100.00
79457;BME280;69494;43.654;3.884;2024-02-26T06:15:20;99578.13;;;6.74;100.00
79457;BME280;69494;43.654;3.884;2024-02-26T06:17:46;99582.47;;;6.72;100.00
79457;BME280;69494;43.654;3.884;2024-02-26T06:20:11;99572.06;;;6.78;100.00
79457;BME280;69494;43.654;3.884;2024-02-26T06:22:40;99570.31;;;6.80;100.00
79457;BME280;69494;43.654;3.884;2024-02-26T06:25:06;99570.25;;;6.83;100.00
79457;BME280;69494;43.654;3.884;2024-02-26T06:27:31;99569.34;;;6.86;100.00
79457;BME280;69494;43.654;3.884;2024-02-26T06:29:56;99557.28;;;6.86;100.00
79457;BME280;69494;43.654;3.884;2024-02-26T06:32:22;99565.91;;;6.87;100.00
79457;BME280;69494;43.654;3.884;2024-02-26T06:34:48;99574.47;;;6.89;100.00
79457;BME280;69494;43.654;3.884;2024-02-26T06:37:13;99578.72;;;6.92;100.00
79457;BME280;69494;43.654;3.884;2024-02-26T06:39:38;99586.44;;;6.93;100.00
79457;BME280;69494;43.654;3.884;2024-02-26T06:42:04;99584.69;;;6.95;100.00
79457;BME280;69494;43.654;3.884;2024-02-26T06:44:29;99588.97;;;6.98;100.00
79457;BME280;69494;43.654;3.884;2024-02-26T06:47:00;99589.78;;;7.00;100.00
79457;BME280;69494;43.654;3.884;2024-02-26T06:49:26;99600.06;;;7.03;100.00
79457;BME280;69494;43.654;3.884;2024-02-26T06:51:52;99603.44;;;7.06;100.00
79457;BME280;69494;43.654;3.884;2024-02-26T06:54:17;99605.97;;;7.08;100.00
79457;BME280;69494;43.654;3.884;2024-02-26T06:56:43;99605.09;;;7.11;100.00
79457;BME280;69494;43.654;3.884;2024-02-26T06:59:08;99617.06;;;7.15;100.00
79457;BME280;69494;43.654;3.884;2024-02-26T07:01:33;99611.03;;;7.17;100.00
79457;BME280;69494;43.654;3.884;2024-02-26T07:03:58;99610.97;;;7.19;100.00
79457;BME280;69494;43.654;3.884;2024-02-26T07:06:24;99618.66;;;7.23;100.00
79457;BME280;69494;43.654;3.884;2024-02-26T07:08:50;99625.47;;;7.28;100.00
79457;BME280;69494;43.654;3.884;2024-02-26T07:11:15;99630.56;;;7.31;100.00
79457;BME280;69494;43.654;3.884;2024-02-26T07:13:40;99641.72;;;7.34;100.00
79457;BME280;69494;43.654;3.884;2024-02-26T07:16:09;99645.06;;;7.39;100.00
79457;BME280;69494;43.654;3.884;2024-02-26T07:18:34;99650.13;;;7.45;100.00
79457;BME280;69494;43.654;3.884;2024-02-26T07:21:02;99652.66;;;7.49;100.00
79457;BME280;69494;43.654;3.884;2024-02-26T07:23:27;99652.59;;;7.53;100.00
79457;BME280;69494;43.654;3.884;2024-02-26T07:25:52;99652.50;;;7.58;100.00
79457;BME280;69494;43.654;3.884;2024-02-26T07:28:18;99654.06;;;7.67;100.00
79457;BME280;69494;43.654;3.884;2024-02-26T07:30:44;99658.88;;;7.85;100.00
79457;BME280;69494;43.654;3.884;2024-02-26T07:33:10;99658.66;;;7.97;100.00
79457;BME280;69494;43.654;3.884;2024-02-26T07:35:35;99666.25;;;8.07;100.00
79457;BME280;69494;43.654;3.884;2024-02-26T07:38:01;99671.31;;;8.13;100.00
79457;BME280;69494;43.654;3.884;2024-02-26T07:40:27;99682.44;;;8.16;100.00
79457;BME280;69494;43.654;3.884;2024-02-26T07:42:52;99685.81;;;8.20;100.00
79457;BME280;69494;43.654;3.884;2024-02-26T07:45:17;99701.34;;;8.20;100.00
79457;BME280;69494;43.654;3.884;2024-02-26T07:47:46;99706.56;;;8.17;100.00
79457;BME280;69494;43.654;3.884;2024-02-26T07:50:11;99710.94;;;8.13;100.00
79457;BME280;69494;43.654;3.884;2024-02-26T07:52:37;99710.97;;;8.12;100.00
79457;BME280;69494;43.654;3.884;2024-02-26T07:55:03;99711.03;;;8.10;100.00
79457;BME280;69494;43.654;3.884;2024-02-26T07:57:28;99718.81;;;8.09;100.00
79457;BME280;69494;43.654;3.884;2024-02-26T07:59:53;99726.53;;;8.10;100.00
79457;BME280;69494;43.654;3.884;2024-02-26T08:02:19;99732.38;;;8.20;100.00
79457;BME280;69494;43.654;3.884;2024-02-26T08:04:44;99725.22;;;8.34;100.00
79457;BME280;69494;43.654;3.884;2024-02-26T08:07:10;99714.59;;;8.50;100.00
79457;BME280;69494;43.654;3.884;2024-02-26T08:09:35;99720.31;;;8.66;100.00
79457;BME280;69494;43.654;3.884;2024-02-26T08:12:00;99706.19;;;8.81;100.00
79457;BME280;69494;43.654;3.884;2024-02-26T08:14:26;99718.94;;;8.88;100.00
79457;BME280;69494;43.654;3.884;2024-02-26T08:16:51;99709.25;;;8.98;100.00
79457;BME280;69494;43.654;3.884;2024-02-26T08:19:16;99695.09;;;9.13;100.00
79457;BME280;69494;43.654;3.884;2024-02-26T08:21:43;99686.31;;;9.19;100.00
79457;BME280;69494;43.654;3.884;2024-02-26T08:24:08;99688.16;;;9.13;100.00
79457;BME280;69494;43.654;3.884;2024-02-26T08:26:33;99677.00;;;9.11;100.00
79457;BME280;69494;43.654;3.884;2024-02-26T08:28:59;99677.94;;;9.07;100.00
79457;BME280;69494;43.654;3.884;2024-02-26T08:31:24;99674.44;;;9.10;100.00
79457;BME280;69494;43.654;3.884;2024-02-26T08:33:50;99673.53;;;9.12;100.00
79457;BME280;69494;43.654;3.884;2024-02-26T08:36:15;99667.19;;;9.24;100.00
79457;BME280;69494;43.654;3.884;2024-02-26T08:38:41;99661.63;;;9.40;100.00
79457;BME280;69494;43.654;3.884;2024-02-26T08:41:06;99656.41;;;9.41;100.00
79457;BME280;69494;43.654;3.884;2024-02-26T08:43:31;99643.28;;;9.47;100.00
79457;BME280;69494;43.654;3.884;2024-02-26T08:45:57;99641.47;;;9.51;100.00
79457;BME280;69494;43.654;3.884;2024-02-26T08:48:23;99641.22;;;9.60;100.00
79457;BME280;69494;43.654;3.884;2024-02-26T08:50:48;99638.34;;;9.71;100.00
79457;BME280;69494;43.654;3.884;2024-02-26T08:53:13;99635.59;;;9.77;100.00
79457;BME280;69494;43.654;3.884;2024-02-26T08:55:39;99628.44;;;9.85;100.00
79457;BME280;69494;43.654;3.884;2024-02-26T08:58:04;99629.91;;;9.96;100.00
79457;BME280;69494;43.654;3.884;2024-02-26T09:00:29;99632.25;;;10.05;100.00
79457;BME280;69494;43.654;3.884;2024-02-26T09:02:56;99633.84;;;10.10;99.80
79457;BME280;69494;43.654;3.884;2024-02-26T09:05:21;99637.81;;;10.22;98.84
79457;BME280;69494;43.654;3.884;2024-02-26T09:07:46;99638.06;;;10.44;98.38
79457;BME280;69494;43.654;3.884;2024-02-26T09:10:12;99649.22;;;10.76;97.22
79457;BME280;69494;43.654;3.884;2024-02-26T09:12:38;99653.47;;;11.07;94.11
79457;BME280;69494;43.654;3.884;2024-02-26T09:15:06;99658.41;;;11.41;92.55
79457;BME280;69494;43.654;3.884;2024-02-26T09:17:31;99648.44;;;11.54;90.91
79457;BME280;69494;43.654;3.884;2024-02-26T09:19:57;99649.28;;;11.80;90.36
79457;BME280;69494;43.654;3.884;2024-02-26T09:22:22;99648.69;;;11.73;89.04
79457;BME280;69494;43.654;3.884;2024-02-26T09:24:48;99648.72;;;11.72;90.02
79457;BME280;69494;43.654;3.884;2024-02-26T09:27:15;99649.94;;;11.87;89.93
79457;BME280;69494;43.654;3.884;2024-02-26T09:29:40;99661.03;;;11.93;89.18
79457;BME280;69494;43.654;3.884;2024-02-26T09:32:06;99651.78;;;11.83;89.17
79457;BME280;69494;43.654;3.884;2024-02-26T09:34:31;99648.19;;;12.12;87.88
79457;BME280;69494;43.654;3.884;2024-02-26T09:36:56;99648.91;;;12.63;88.22
79457;BME280;69494;43.654;3.884;2024-02-26T09:39:22;99645.81;;;12.97;85.72
79457;BME280;69494;43.654;3.884;2024-02-26T09:41:48;99660.59;;;13.19;84.64
79457;BME280;69494;43.654;3.884;2024-02-26T09:44:18;99661.69;;;13.35;82.90
79457;BME280;69494;43.654;3.884;2024-02-26T09:46:44;99668.25;;;13.24;82.70
79457;BME280;69494;43.654;3.884;2024-02-26T09:49:11;99688.94;;;13.06;81.61
79457;BME280;69494;43.654;3.884;2024-02-26T09:51:38;99686.63;;;13.21;80.56
79457;BME280;69494;43.654;3.884;2024-02-26T09:54:03;99685.84;;;13.82;78.38
79457;BME280;69494;43.654;3.884;2024-02-26T09:56:29;99682.94;;;14.29;77.00
79457;BME280;69494;43.654;3.884;2024-02-26T09:58:55;99674.44;;;14.05;75.92
79457;BME280;69494;43.654;3.884;2024-02-26T10:01:21;99668.84;;;13.52;78.24
79457;BME280;69494;43.654;3.884;2024-02-26T10:03:54;99670.47;;;13.11;79.93
79457;BME280;69494;43.654;3.884;2024-02-26T10:06:20;99668.81;;;12.88;80.69
79457;BME280;69494;43.654;3.884;2024-02-26T10:08:47;99665.59;;;12.81;80.56
79457;BME280;69494;43.654;3.884;2024-02-26T10:11:14;99665.78;;;12.99;81.15
79457;BME280;69494;43.654;3.884;2024-02-26T10:13:40;99668.13;;;13.05;81.73
79457;BME280;69494;43.654;3.884;2024-02-26T10:16:06;99671.00;;;12.99;81.59
79457;BME280;69494;43.654;3.884;2024-02-26T10:18:53;99671.88;;;12.97;80.84
79457;BME280;69494;43.654;3.884;2024-02-26T10:21:22;99678.91;;;13.18;80.81
79457;BME280;69494;43.654;3.884;2024-02-26T10:23:48;99677.81;;;13.23;80.91
79457;BME280;69494;43.654;3.884;2024-02-26T10:26:14;99683.84;;;13.25;81.56
79457;BME280;69494;43.654;3.884;2024-02-26T10:28:41;99688.59;;;13.58;80.37
79457;BME280;69494;43.654;3.884;2024-02-26T10:31:07;99684.22;;;13.59;79.92
79457;BME280;69494;43.654;3.884;2024-02-26T10:33:34;99690.38;;;13.78;79.74
79457;BME280;69494;43.654;3.884;2024-02-26T10:36:06;99688.88;;;13.72;78.75
79457;BME280;69494;43.654;3.884;2024-02-26T10:38:33;99695.47;;;13.81;79.41
79457;BME280;69494;43.654;3.884;2024-02-26T10:40:58;99701.06;;;13.72;79.08
79457;BME280;69494;43.654;3.884;2024-02-26T10:43:26;99703.47;;;13.56;79.62
79457;BME280;69494;43.654;3.884;2024-02-26T10:45:52;99704.38;;;13.55;79.23
79457;BME280;69494;43.654;3.884;2024-02-26T10:48:18;99711.03;;;13.42;79.25
79457;BME280;69494;43.654;3.884;2024-02-26T10:50:44;99710.63;;;13.29;78.98
79457;BME280;69494;43.654;3.884;2024-02-26T10:53:22;99715.72;;;13.10;80.49
79457;BME280;69494;43.654;3.884;2024-02-26T10:55:57;99713.34;;;13.04;80.74
79457;BME280;69494;43.654;3.884;2024-02-26T10:58:23;99698.75;;;13.00;79.87
79457;BME280;69494;43.654;3.884;2024-02-26T11:00:53;99700.13;;;12.86;79.49
79457;BME280;69494;43.654;3.884;2024-02-26T11:03:19;99706.28;;;12.84;78.30
79457;BME280;69494;43.654;3.884;2024-02-26T11:05:49;99703.31;;;12.71;78.45
79457;BME280;69494;43.654;3.884;2024-02-26T11:08:16;99699.41;;;12.59;79.79
79457;BME280;69494;43.654;3.884;2024-02-26T11:10:43;99697.00;;;12.54;79.93
79457;BME280;69494;43.654;3.884;2024-02-26T11:13:10;99694.28;;;12.57;79.30
79457;BME280;69494;43.654;3.884;2024-02-26T11:15:37;99698.41;;;12.63;78.78
79457;BME280;69494;43.654;3.884;2024-02-26T11:18:03;99697.22;;;12.72;78.74
79457;BME280;69494;43.654;3.884;2024-02-26T11:20:30;99702.38;;;12.73;78.24
79457;BME280;69494;43.654;3.884;2024-02-26T11:22:57;99710.09;;;12.75;78.69
79457;BME280;69494;43.654;3.884;2024-02-26T11:25:22;99705.25;;;12.66;78.77
79457;BME280;69494;43.654;3.884;2024-02-26T11:27:55;99700.44;;;12.55;79.54
79457;BME280;69494;43.654;3.884;2024-02-26T11:30:24;99702.25;;;12.53;79.90
79457;BME280;69494;43.654;3.884;2024-02-26T11:32:51;99681.34;;;12.54;81.01
79457;BME280;69494;43.654;3.884;2024-02-26T11:35:18;99681.94;;;12.63;80.45
79457;BME280;69494;43.654;3.884;2024-02-26T11:37:57;99687.94;;;12.65;80.06
79457;BME280;69494;43.654;3.884;2024-02-26T11:40:26;99685.72;;;12.54;80.52
79457;BME280;69494;43.654;3.884;2024-02-26T11:42:52;99681.66;;;12.47;80.34
79457;BME280;69494;43.654;3.884;2024-02-26T11:48:24;99683.97;;;12.31;79.62
79457;BME280;69494;43.654;3.884;2024-02-26T11:50:54;99687.38;;;12.33;80.35
79457;BME280;69494;43.654;3.884;2024-02-26T11:53:25;99680.25;;;12.38;80.09
79457;BME280;69494;43.654;3.884;2024-02-26T11:56:14;99677.84;;;12.32;80.82
79457;BME280;69494;43.654;3.884;2024-02-26T11:58:45;99687.81;;;12.20;81.48
79457;BME280;69494;43.654;3.884;2024-02-26T12:01:45;99689.03;;;12.10;81.84
79457;BME280;69494;43.654;3.884;2024-02-26T12:06:51;99675.66;;;11.96;82.22
79457;BME280;69494;43.654;3.884;2024-02-26T12:09:42;99673.91;;;11.96;82.37
79457;BME280;69494;43.654;3.884;2024-02-26T12:12:11;99668.53;;;12.01;82.25
79457;BME280;69494;43.654;3.884;2024-02-26T12:14:40;99674.09;;;12.15;82.29
79457;BME280;69494;43.654;3.884;2024-02-26T12:17:08;99667.63;;;12.27;81.54
79457;BME280;69494;43.654;3.884;2024-02-26T12:19:44;99660.63;;;12.51;80.17
79457;BME280;69494;43.654;3.884;2024-02-26T12:22:12;99650.25;;;12.73;79.31
79457;BME280;69494;43.654;3.884;2024-02-26T12:24:38;99643.59;;;12.88;77.46
79457;BME280;69494;43.654;3.884;2024-02-26T12:27:03;99635.69;;;13.12;75.50
79457;BME280;69494;43.654;3.884;2024-02-26T12:29:28;99630.88;;;13.45;74.08
79457;BME280;69494;43.654;3.884;2024-02-26T12:31:54;99631.03;;;14.02;72.58
79457;BME280;69494;43.654;3.884;2024-02-26T12:34:19;99629.97;;;14.82;69.12
79457;BME280;69494;43.654;3.884;2024-02-26T12:36:45;99623.59;;;15.24;66.41
79457;BME280;69494;43.654;3.884;2024-02-26T12:39:10;99620.91;;;15.78;64.80
79457;BME280;69494;43.654;3.884;2024-02-26T12:41:38;99611.19;;;16.77;62.49
79457;BME280;69494;43.654;3.884;2024-02-26T12:44:03;99610.78;;;17.31;60.35
79457;BME280;69494;43.654;3.884;2024-02-26T12:46:29;99606.84;;;17.83;60.10
79457;BME280;69494;43.654;3.884;2024-02-26T12:48:56;99608.31;;;17.59;57.45
79457;BME280;69494;43.654;3.884;2024-02-26T12:51:25;99606.25;;;17.64;56.67
79457;BME280;69494;43.654;3.884;2024-02-26T12:53:51;99602.03;;;17.76;56.62
79457;BME280;69494;43.654;3.884;2024-02-26T12:56:17;99617.47;;;16.43;58.61
79457;BME280;69494;43.654;3.884;2024-02-26T12:58:44;99619.44;;;15.55;61.15
79457;BME280;69494;43.654;3.884;2024-02-26T13:01:15;99622.00;;;14.85;64.25